createdAt,value
2023-01-03T00:00:17.501Z,0.00
2023-01-03T00:01:17.478Z,0.00
2023-01-03T00:02:17.504Z,0.00
2023-01-03T00:03:17.427Z,0.00
2023-01-03T00:04:17.448Z,0.00
2023-01-03T00:05:17.443Z,0.00
2023-01-03T00:06:17.423Z,0.00
2023-01-03T00:07:17.427Z,0.00
2023-01-03T00:08:17.379Z,0.00
2023-01-03T00:09:17.382Z,0.00
2023-01-03T00:10:17.400Z,0.00
2023-01-03T00:11:17.370Z,0.00
2023-01-03T00:12:17.338Z,0.00
2023-01-03T00:13:17.330Z,0.00
2023-01-03T00:14:17.312Z,0.00
2023-01-03T00:15:17.308Z,0.00
2023-01-03T00:16:17.322Z,0.00
2023-01-03T00:17:17.343Z,0.00
2023-01-03T00:18:17.275Z,0.00
2023-01-03T00:19:17.282Z,0.00
2023-01-03T00:20:17.263Z,0.00
2023-01-03T00:21:17.249Z,0.00
2023-01-03T00:22:17.251Z,0.00
2023-01-03T00:23:17.224Z,0.00
2023-01-03T00:24:17.220Z,0.00
2023-01-03T00:25:17.208Z,0.00
2023-01-03T00:26:17.184Z,0.00
2023-01-03T00:27:17.179Z,0.00
2023-01-03T00:28:17.191Z,0.00
2023-01-03T00:29:17.162Z,0.00
2023-01-03T00:30:17.198Z,0.00
2023-01-03T00:31:17.225Z,0.00
2023-01-03T00:32:17.146Z,0.00
2023-01-03T00:33:17.149Z,0.00
2023-01-03T00:34:17.145Z,0.00
2023-01-03T00:35:17.101Z,0.00
2023-01-03T00:36:17.087Z,0.00
2023-01-03T00:37:17.084Z,0.00
2023-01-03T00:38:17.116Z,0.00
2023-01-03T00:39:17.076Z,0.00
2023-01-03T00:40:17.042Z,0.00
2023-01-03T00:41:17.025Z,0.00
2023-01-03T00:42:17.025Z,0.00
2023-01-03T00:43:17.056Z,0.00
2023-01-03T00:44:24.812Z,0.00
2023-01-03T00:45:19.901Z,0.00
2023-01-03T00:46:18.895Z,0.00
2023-01-03T00:47:16.964Z,0.00
2023-01-03T00:48:16.991Z,0.00
2023-01-03T00:49:16.954Z,0.00
2023-01-03T00:50:16.951Z,0.00
2023-01-03T00:51:16.937Z,0.00
2023-01-03T00:52:16.936Z,0.00
2023-01-03T00:53:16.922Z,0.00
2023-01-03T00:54:16.909Z,0.00
2023-01-03T00:55:16.954Z,0.00
2023-01-03T00:56:16.894Z,0.00
2023-01-03T00:57:16.867Z,0.00
2023-01-03T00:58:16.875Z,0.00
2023-01-03T00:59:16.871Z,0.00
2023-01-03T01:00:16.824Z,0.00
2023-01-03T01:01:17.016Z,0.00
2023-01-03T01:02:16.983Z,0.00
2023-01-03T01:03:16.973Z,0.00
2023-01-03T01:04:16.783Z,0.00
2023-01-03T01:05:16.804Z,0.00
2023-01-03T01:06:16.754Z,0.00
2023-01-03T01:07:16.755Z,0.00
2023-01-03T01:08:16.739Z,0.00
2023-01-03T01:09:16.768Z,0.00
2023-01-03T01:10:16.729Z,0.00
2023-01-03T01:11:16.737Z,0.00
2023-01-03T01:12:16.695Z,0.00
2023-01-03T01:13:16.691Z,0.00
2023-01-03T01:14:16.673Z,0.00
2023-01-03T01:15:16.670Z,0.00
2023-01-03T01:16:16.709Z,0.00
2023-01-03T01:17:22.357Z,0.00
2023-01-03T01:18:17.641Z,0.00
2023-01-03T01:19:16.959Z,0.00
2023-01-03T01:20:16.645Z,0.00
2023-01-03T01:21:16.611Z,0.00
2023-01-03T01:22:16.619Z,0.00
2023-01-03T01:23:16.583Z,0.00
2023-01-03T01:24:18.205Z,0.00
2023-01-03T01:25:16.588Z,0.00
2023-01-03T01:26:16.559Z,0.00
2023-01-03T01:27:16.544Z,0.00
2023-01-03T01:28:16.531Z,0.00
2023-01-03T01:29:16.521Z,0.00
2023-01-03T01:30:16.504Z,0.00
2023-01-03T01:31:16.598Z,0.00
2023-01-03T01:32:16.485Z,0.00
2023-01-03T01:33:16.477Z,0.00
2023-01-03T01:34:16.477Z,0.00
2023-01-03T01:35:16.484Z,0.00
2023-01-03T01:36:16.447Z,0.00
2023-01-03T01:37:16.448Z,0.00
2023-01-03T01:38:16.422Z,0.00
2023-01-03T01:39:16.407Z,0.00
2023-01-03T01:40:16.424Z,0.00
2023-01-03T01:41:16.394Z,0.00
2023-01-03T01:42:19.752Z,0.00
2023-01-03T01:43:16.363Z,0.00
2023-01-03T01:44:16.395Z,0.00
2023-01-03T01:45:16.371Z,0.00
2023-01-03T01:46:16.431Z,0.00
2023-01-03T01:47:16.341Z,0.00
2023-01-03T01:48:16.322Z,0.00
2023-01-03T01:49:16.306Z,0.00
2023-01-03T01:50:16.343Z,0.00
2023-01-03T01:51:16.284Z,0.00
2023-01-03T01:52:16.283Z,0.00
2023-01-03T01:53:16.267Z,0.00
2023-01-03T01:54:16.249Z,0.00
2023-01-03T01:55:16.281Z,0.00
2023-01-03T01:56:16.224Z,0.00
2023-01-03T01:57:16.237Z,0.00
2023-01-03T01:58:16.229Z,0.00
2023-01-03T01:59:16.203Z,0.00
2023-01-03T02:00:16.229Z,0.00
2023-01-03T02:01:16.292Z,0.00
2023-01-03T02:02:16.377Z,0.00
2023-01-03T02:03:16.317Z,0.00
2023-01-03T02:04:16.146Z,0.00
2023-01-03T02:05:16.145Z,0.00
2023-01-03T02:06:16.141Z,0.00
2023-01-03T02:07:16.130Z,0.00
2023-01-03T02:08:16.108Z,0.00
2023-01-03T02:09:16.094Z,0.00
2023-01-03T02:10:16.103Z,0.00
2023-01-03T02:11:16.074Z,0.00
2023-01-03T02:12:16.065Z,0.00
2023-01-03T02:13:16.053Z,0.00
2023-01-03T02:14:16.025Z,0.00
2023-01-03T02:15:16.033Z,0.00
2023-01-03T02:16:16.137Z,0.00
2023-01-03T02:17:16.036Z,0.00
2023-01-03T02:18:16.023Z,0.00
2023-01-03T02:19:15.976Z,0.00
2023-01-03T02:20:15.971Z,0.00
2023-01-03T02:21:19.913Z,0.00
2023-01-03T02:22:15.953Z,0.00
2023-01-03T02:23:15.968Z,0.00
2023-01-03T02:24:15.925Z,0.00
2023-01-03T02:25:15.926Z,0.00
2023-01-03T02:26:15.911Z,0.00
2023-01-03T02:27:15.906Z,0.00
2023-01-03T02:28:15.914Z,0.00
2023-01-03T02:29:15.883Z,0.00
2023-01-03T02:30:15.867Z,0.00
2023-01-03T02:31:15.935Z,0.00
2023-01-03T02:32:15.853Z,0.00
2023-01-03T02:33:16.807Z,0.00
2023-01-03T02:34:15.832Z,0.00
2023-01-03T02:35:15.827Z,0.00
2023-01-03T02:36:15.799Z,0.00
2023-01-03T02:37:15.793Z,0.00
2023-01-03T02:38:15.804Z,0.00
2023-01-03T02:39:19.181Z,0.00
2023-01-03T02:40:16.768Z,0.00
2023-01-03T02:41:15.772Z,0.00
2023-01-03T02:42:15.739Z,0.00
2023-01-03T02:43:15.766Z,0.00
2023-01-03T02:44:15.718Z,0.00
2023-01-03T02:45:15.711Z,0.00
2023-01-03T02:46:15.727Z,0.00
2023-01-03T02:47:15.693Z,0.00
2023-01-03T02:48:15.695Z,0.00
2023-01-03T02:49:15.660Z,0.00
2023-01-03T02:50:15.674Z,0.00
2023-01-03T02:51:15.650Z,0.00
2023-01-03T02:52:15.635Z,0.00
2023-01-03T02:53:15.649Z,0.00
2023-01-03T02:54:15.612Z,0.00
2023-01-03T02:55:15.588Z,0.00
2023-01-03T02:56:15.594Z,0.00
2023-01-03T02:57:15.581Z,0.00
2023-01-03T02:58:15.569Z,0.00
2023-01-03T02:59:19.944Z,0.00
2023-01-03T03:00:15.555Z,0.00
2023-01-03T03:01:15.654Z,0.00
2023-01-03T03:02:15.689Z,0.00
2023-01-03T03:03:15.613Z,0.00
2023-01-03T03:04:15.504Z,0.00
2023-01-03T03:05:15.506Z,0.00
2023-01-03T03:06:15.480Z,0.00
2023-01-03T03:07:15.477Z,0.00
2023-01-03T03:08:15.469Z,0.00
2023-01-03T03:09:15.474Z,0.00
2023-01-03T03:10:15.450Z,0.00
2023-01-03T03:11:15.461Z,0.00
2023-01-03T03:12:15.426Z,0.00
2023-01-03T03:13:15.430Z,0.00
2023-01-03T03:14:15.425Z,0.00
2023-01-03T03:15:15.381Z,0.00
2023-01-03T03:16:15.399Z,0.00
2023-01-03T03:17:15.359Z,0.00
2023-01-03T03:18:15.349Z,0.00
2023-01-03T03:19:15.370Z,0.00
2023-01-03T03:20:15.346Z,0.00
2023-01-03T03:21:15.325Z,0.00
2023-01-03T03:22:15.310Z,0.00
2023-01-03T03:23:15.297Z,0.00
2023-01-03T03:24:15.317Z,0.00
2023-01-03T03:25:15.281Z,0.00
2023-01-03T03:26:15.274Z,0.00
2023-01-03T03:27:15.250Z,0.00
2023-01-03T03:28:15.250Z,0.00
2023-01-03T03:29:15.261Z,0.00
2023-01-03T03:30:15.232Z,0.00
2023-01-03T03:31:15.265Z,0.00
2023-01-03T03:32:15.200Z,0.00
2023-01-03T03:33:15.190Z,0.00
2023-01-03T03:34:15.218Z,0.00
2023-01-03T03:35:15.187Z,0.00
2023-01-03T03:36:15.168Z,0.00
2023-01-03T03:37:15.170Z,0.00
2023-01-03T03:38:15.150Z,0.00
2023-01-03T03:39:15.149Z,0.00
2023-01-03T03:40:15.134Z,0.00
2023-01-03T03:41:15.136Z,0.00
2023-01-03T03:42:15.103Z,0.00
2023-01-03T03:43:15.116Z,0.00
2023-01-03T03:44:15.090Z,0.00
2023-01-03T03:45:15.077Z,0.00
2023-01-03T03:46:15.077Z,0.00
2023-01-03T03:47:15.111Z,0.00
2023-01-03T03:48:15.165Z,0.00
2023-01-03T03:49:15.051Z,0.00
2023-01-03T03:50:15.024Z,0.00
2023-01-03T03:51:15.011Z,0.00
2023-01-03T03:52:15.032Z,0.00
2023-01-03T03:53:14.977Z,0.00
2023-01-03T03:54:14.969Z,0.00
2023-01-03T03:55:14.983Z,0.00
2023-01-03T03:56:14.960Z,0.00
2023-01-03T03:57:14.936Z,0.00
2023-01-03T03:58:14.941Z,0.00
2023-01-03T03:59:14.919Z,0.00
2023-01-03T04:00:14.923Z,0.00
2023-01-03T04:01:14.928Z,0.00
2023-01-03T04:02:14.943Z,0.00
2023-01-03T04:03:15.023Z,0.00
2023-01-03T04:04:14.908Z,0.00
2023-01-03T04:05:14.880Z,0.00
2023-01-03T04:06:14.848Z,0.00
2023-01-03T04:07:14.829Z,0.00
2023-01-03T04:08:14.818Z,0.00
2023-01-03T04:09:14.833Z,0.00
2023-01-03T04:10:14.801Z,0.00
2023-01-03T04:11:14.797Z,0.00
2023-01-03T04:12:14.796Z,0.00
2023-01-03T04:13:14.761Z,0.00
2023-01-03T04:14:14.751Z,0.00
2023-01-03T04:15:14.763Z,0.00
2023-01-03T04:16:14.832Z,0.00
2023-01-03T04:17:14.715Z,0.00
2023-01-03T04:18:14.713Z,0.00
2023-01-03T04:19:14.724Z,0.00
2023-01-03T04:20:14.681Z,0.00
2023-01-03T04:21:20.433Z,0.00
2023-01-03T04:22:15.664Z,0.00
2023-01-03T04:23:14.652Z,0.00
2023-01-03T04:24:14.653Z,0.00
2023-01-03T04:25:14.677Z,0.00
2023-01-03T04:26:14.645Z,0.00
2023-01-03T04:27:14.604Z,0.00
2023-01-03T04:28:14.608Z,0.00
2023-01-03T04:29:14.595Z,0.00
2023-01-03T04:30:14.606Z,0.00
2023-01-03T04:31:14.620Z,0.00
2023-01-03T04:32:14.614Z,0.00
2023-01-03T04:33:14.549Z,0.00
2023-01-03T04:34:14.537Z,0.00
2023-01-03T04:35:14.543Z,0.00
2023-01-03T04:36:14.515Z,0.00
2023-01-03T04:37:14.510Z,0.00
2023-01-03T04:38:14.497Z,0.00
2023-01-03T04:39:14.483Z,0.00
2023-01-03T04:40:14.473Z,0.00
2023-01-03T04:41:14.489Z,0.00
2023-01-03T04:42:14.454Z,0.00
2023-01-03T04:43:14.435Z,0.00
2023-01-03T04:44:14.426Z,0.00
2023-01-03T04:45:14.416Z,0.00
2023-01-03T04:46:14.441Z,0.00
2023-01-03T04:47:14.412Z,0.00
2023-01-03T04:48:14.412Z,0.00
2023-01-03T04:49:14.376Z,0.00
2023-01-03T04:50:14.362Z,0.00
2023-01-03T04:51:14.362Z,0.00
2023-01-03T04:52:14.343Z,0.00
2023-01-03T04:53:14.337Z,0.00
2023-01-03T04:54:14.342Z,0.00
2023-01-03T04:55:14.302Z,0.00
2023-01-03T04:56:14.293Z,0.00
2023-01-03T04:57:14.302Z,0.00
2023-01-03T04:58:14.274Z,0.00
2023-01-03T04:59:14.284Z,0.00
2023-01-03T05:00:14.255Z,0.00
2023-01-03T05:01:14.466Z,0.00
2023-01-03T05:02:14.354Z,0.00
2023-01-03T05:03:14.215Z,0.00
2023-01-03T05:04:14.259Z,0.00
2023-01-03T05:05:14.222Z,0.00
2023-01-03T05:06:14.194Z,0.00
2023-01-03T05:07:14.307Z,0.00
2023-01-03T05:08:14.168Z,0.00
2023-01-03T05:09:14.203Z,0.00
2023-01-03T05:10:14.135Z,0.00
2023-01-03T05:11:14.150Z,0.00
2023-01-03T05:12:14.196Z,0.00
2023-01-03T05:13:14.100Z,0.00
2023-01-03T05:14:14.685Z,0.00
2023-01-03T05:15:14.106Z,0.00
2023-01-03T05:16:14.282Z,0.00
2023-01-03T05:17:14.057Z,0.00
2023-01-03T05:18:14.060Z,0.00
2023-01-03T05:19:14.036Z,0.00
2023-01-03T05:20:14.089Z,0.00
2023-01-03T05:21:14.139Z,0.00
2023-01-03T05:22:14.009Z,0.00
2023-01-03T05:23:14.044Z,0.00
2023-01-03T05:24:13.986Z,0.00
2023-01-03T05:25:13.980Z,0.00
2023-01-03T05:26:14.050Z,0.00
2023-01-03T05:27:13.994Z,0.00
2023-01-03T05:28:17.474Z,0.00
2023-01-03T05:29:13.946Z,0.00
2023-01-03T05:30:13.974Z,0.00
2023-01-03T05:31:13.914Z,0.00
2023-01-03T05:32:14.021Z,0.00
2023-01-03T05:33:13.915Z,0.00
2023-01-03T05:34:13.884Z,0.00
2023-01-03T05:35:13.893Z,0.00
2023-01-03T05:36:14.861Z,0.00
2023-01-03T05:37:13.844Z,0.00
2023-01-03T05:38:13.863Z,0.00
2023-01-03T05:39:13.826Z,0.00
2023-01-03T05:40:13.819Z,0.00
2023-01-03T05:41:13.803Z,0.00
2023-01-03T05:42:13.801Z,0.00
2023-01-03T05:43:13.788Z,0.00
2023-01-03T05:44:13.824Z,0.00
2023-01-03T05:45:13.753Z,0.00
2023-01-03T05:46:13.807Z,0.00
2023-01-03T05:47:13.744Z,0.00
2023-01-03T05:48:13.735Z,0.00
2023-01-03T05:49:13.722Z,0.00
2023-01-03T05:50:13.736Z,0.00
2023-01-03T05:51:13.689Z,0.00
2023-01-03T05:52:13.722Z,0.00
2023-01-03T05:53:13.703Z,0.00
2023-01-03T05:54:13.689Z,0.00
2023-01-03T05:55:13.666Z,0.00
2023-01-03T05:56:13.641Z,0.00
2023-01-03T05:57:13.648Z,0.00
2023-01-03T05:58:13.631Z,0.00
2023-01-03T05:59:13.629Z,0.00
2023-01-03T06:00:13.623Z,0.00
2023-01-03T06:01:13.635Z,0.00
2023-01-03T06:02:13.713Z,0.00
2023-01-03T06:03:13.578Z,0.00
2023-01-03T06:04:13.581Z,0.00
2023-01-03T06:05:13.547Z,0.00
2023-01-03T06:06:13.574Z,0.00
2023-01-03T06:07:13.526Z,0.00
2023-01-03T06:08:13.509Z,0.00
2023-01-03T06:09:13.510Z,0.00
2023-01-03T06:10:13.493Z,0.00
2023-01-03T06:11:13.475Z,0.00
2023-01-03T06:12:13.488Z,0.00
2023-01-03T06:13:13.515Z,0.00
2023-01-03T06:14:13.444Z,0.00
2023-01-03T06:15:13.453Z,0.00
2023-01-03T06:16:13.435Z,0.00
2023-01-03T06:17:13.541Z,0.00
2023-01-03T06:18:13.396Z,0.00
2023-01-03T06:19:13.415Z,0.00
2023-01-03T06:20:13.379Z,0.00
2023-01-03T06:21:13.398Z,0.00
2023-01-03T06:22:13.386Z,0.00
2023-01-03T06:23:13.352Z,0.00
2023-01-03T06:24:13.337Z,0.00
2023-01-03T06:25:13.360Z,0.00
2023-01-03T06:26:13.309Z,0.00
2023-01-03T06:27:13.325Z,0.00
2023-01-03T06:28:13.288Z,0.00
2023-01-03T06:29:13.280Z,0.00
2023-01-03T06:30:13.266Z,0.00
2023-01-03T06:31:13.306Z,0.00
2023-01-03T06:32:13.280Z,0.00
2023-01-03T06:33:13.273Z,0.00
2023-01-03T06:34:13.223Z,0.00
2023-01-03T06:35:13.203Z,0.00
2023-01-03T06:36:13.205Z,0.00
2023-01-03T06:37:13.193Z,0.00
2023-01-03T06:38:13.177Z,0.00
2023-01-03T06:39:13.213Z,0.00
2023-01-03T06:40:13.160Z,0.00
2023-01-03T06:41:13.150Z,0.00
2023-01-03T06:42:13.135Z,0.00
2023-01-03T06:43:13.125Z,0.00
2023-01-03T06:44:13.112Z,0.00
2023-01-03T06:45:13.142Z,0.00
2023-01-03T06:46:13.142Z,0.00
2023-01-03T06:47:13.176Z,0.00
2023-01-03T06:48:13.068Z,0.00
2023-01-03T06:49:13.065Z,0.00
2023-01-03T06:50:13.068Z,0.00
2023-01-03T06:51:13.057Z,0.00
2023-01-03T06:52:13.028Z,0.00
2023-01-03T06:53:13.022Z,0.00
2023-01-03T06:54:13.019Z,0.00
2023-01-03T06:55:12.997Z,0.00
2023-01-03T06:56:12.998Z,0.00
2023-01-03T06:57:25.913Z,0.00
2023-01-03T06:58:14.097Z,0.00
2023-01-03T06:59:12.958Z,0.00
2023-01-03T07:00:12.986Z,0.00
2023-01-03T07:01:13.084Z,0.00
2023-01-03T07:02:13.031Z,0.00
2023-01-03T07:03:13.069Z,0.00
2023-01-03T07:04:12.976Z,0.00
2023-01-03T07:05:12.898Z,4.00
2023-01-03T07:06:12.893Z,4.00
2023-01-03T07:07:12.911Z,4.00
2023-01-03T07:08:12.859Z,4.00
2023-01-03T07:09:12.868Z,4.00
2023-01-03T07:10:12.839Z,8.00
2023-01-03T07:11:12.837Z,4.00
2023-01-03T07:12:12.817Z,8.00
2023-01-03T07:13:12.825Z,8.00
2023-01-03T07:14:12.812Z,8.00
2023-01-03T07:15:12.781Z,12.00
2023-01-03T07:16:12.805Z,16.00
2023-01-03T07:17:12.768Z,12.00
2023-01-03T07:18:12.746Z,16.00
2023-01-03T07:19:12.764Z,20.00
2023-01-03T07:20:12.725Z,20.00
2023-01-03T07:21:12.714Z,20.00
2023-01-03T07:22:12.697Z,20.00
2023-01-03T07:23:12.705Z,28.00
2023-01-03T07:24:12.702Z,32.00
2023-01-03T07:25:12.681Z,28.00
2023-01-03T07:26:12.655Z,32.00
2023-01-03T07:27:12.658Z,36.00
2023-01-03T07:28:12.667Z,36.00
2023-01-03T07:29:12.654Z,40.00
2023-01-03T07:30:12.609Z,44.00
2023-01-03T07:31:12.652Z,48.00
2023-01-03T07:32:12.597Z,56.00
2023-01-03T07:33:12.594Z,60.00
2023-01-03T07:34:12.605Z,72.00
2023-01-03T07:35:12.559Z,84.00
2023-01-03T07:36:12.572Z,96.00
2023-01-03T07:37:12.541Z,96.00
2023-01-03T07:38:12.538Z,116.00
2023-01-03T07:39:12.529Z,144.00
2023-01-03T07:40:12.530Z,148.00
2023-01-03T07:41:12.504Z,164.00
2023-01-03T07:42:12.485Z,172.00
2023-01-03T07:43:12.469Z,188.00
2023-01-03T07:44:12.460Z,208.00
2023-01-03T07:45:12.509Z,216.00
2023-01-03T07:46:12.519Z,240.00
2023-01-03T07:47:12.455Z,276.00
2023-01-03T07:48:12.421Z,292.00
2023-01-03T07:49:12.695Z,316.00
2023-01-03T07:50:12.396Z,348.00
2023-01-03T07:51:12.385Z,396.00
2023-01-03T07:52:12.401Z,460.00
2023-01-03T07:53:12.360Z,496.00
2023-01-03T07:54:12.384Z,528.00
2023-01-03T07:55:12.344Z,548.00
2023-01-03T07:56:13.356Z,592.00
2023-01-03T07:57:12.333Z,624.00
2023-01-03T07:58:12.315Z,644.00
2023-01-03T07:59:12.329Z,672.00
2023-01-03T08:00:12.280Z,696.00
2023-01-03T08:01:12.375Z,720.00
2023-01-03T08:02:12.477Z,748.00
2023-01-03T08:03:12.360Z,780.00
2023-01-03T08:04:12.332Z,812.00
2023-01-03T08:05:12.300Z,836.00
2023-01-03T08:06:12.223Z,864.00
2023-01-03T08:07:12.210Z,884.00
2023-01-03T08:08:12.192Z,912.00
2023-01-03T08:09:12.207Z,936.00
2023-01-03T08:10:12.185Z,960.00
2023-01-03T08:11:12.171Z,984.00
2023-01-03T08:12:12.158Z,1000.00
2023-01-03T08:13:12.155Z,1024.00
2023-01-03T08:14:12.129Z,1048.00
2023-01-03T08:15:12.139Z,1068.00
2023-01-03T08:16:12.151Z,1092.00
2023-01-03T08:17:12.098Z,1112.00
2023-01-03T08:18:12.088Z,1136.00
2023-01-03T08:19:12.120Z,1148.00
2023-01-03T08:20:12.072Z,1148.00
2023-01-03T08:21:12.091Z,1184.00
2023-01-03T08:22:12.052Z,1188.00
2023-01-03T08:23:12.038Z,1200.00
2023-01-03T08:24:12.028Z,1228.00
2023-01-03T08:25:12.020Z,1244.00
2023-01-03T08:26:12.000Z,1288.00
2023-01-03T08:27:12.024Z,1292.00
2023-01-03T08:28:11.989Z,1292.00
2023-01-03T08:29:11.967Z,1320.00
2023-01-03T08:30:11.963Z,1372.00
2023-01-03T08:31:12.008Z,1364.00
2023-01-03T08:32:11.975Z,1372.00
2023-01-03T08:33:11.933Z,1400.00
2023-01-03T08:34:16.790Z,1400.00
2023-01-03T08:35:12.914Z,1412.00
2023-01-03T08:36:11.929Z,1452.00
2023-01-03T08:37:11.901Z,1480.00
2023-01-03T08:38:11.897Z,1432.00
2023-01-03T08:39:11.861Z,1416.00
2023-01-03T08:40:11.849Z,1428.00
2023-01-03T08:41:11.852Z,1488.00
2023-01-03T08:42:11.831Z,1496.00
2023-01-03T08:43:11.826Z,1660.00
2023-01-03T08:44:11.833Z,1700.00
2023-01-03T08:45:11.823Z,1712.00
2023-01-03T08:46:11.818Z,1740.00
2023-01-03T08:47:11.841Z,1764.00
2023-01-03T08:48:11.791Z,1784.00
2023-01-03T08:49:11.782Z,1804.00
2023-01-03T08:50:11.745Z,1836.00
2023-01-03T08:51:11.744Z,1856.00
2023-01-03T08:52:11.718Z,1876.00
2023-01-03T08:53:11.749Z,1892.00
2023-01-03T08:54:11.706Z,1916.00
2023-01-03T08:55:11.704Z,1944.00
2023-01-03T08:56:11.687Z,1960.00
2023-01-03T08:57:11.671Z,1992.00
2023-01-03T08:58:11.648Z,2016.00
2023-01-03T08:59:11.666Z,2044.00
2023-01-03T09:00:11.649Z,2068.00
2023-01-03T09:01:11.744Z,2100.00
2023-01-03T09:02:11.918Z,2136.00
2023-01-03T09:03:11.936Z,2164.00
2023-01-03T09:04:11.698Z,2192.00
2023-01-03T09:05:11.616Z,2232.00
2023-01-03T09:06:11.578Z,2268.00
2023-01-03T09:07:11.571Z,2304.00
2023-01-03T09:08:11.543Z,2340.00
2023-01-03T09:09:11.560Z,2384.00
2023-01-03T09:10:11.552Z,2416.00
2023-01-03T09:11:11.521Z,2456.00
2023-01-03T09:12:11.517Z,2492.00
2023-01-03T09:13:11.511Z,2536.00
2023-01-03T09:14:11.499Z,2580.00
2023-01-03T09:15:11.474Z,2628.00
2023-01-03T09:16:11.522Z,2672.00
2023-01-03T09:17:11.465Z,2728.00
2023-01-03T09:18:11.432Z,2784.00
2023-01-03T09:19:11.427Z,2832.00
2023-01-03T09:20:11.709Z,2896.00
2023-01-03T09:21:11.400Z,2940.00
2023-01-03T09:22:11.410Z,3000.00
2023-01-03T09:23:11.380Z,3052.00
2023-01-03T09:24:11.381Z,3160.00
2023-01-03T09:25:11.397Z,3196.00
2023-01-03T09:26:11.352Z,3284.00
2023-01-03T09:27:11.349Z,3380.00
2023-01-03T09:28:11.341Z,3440.00
2023-01-03T09:29:11.345Z,3520.00
2023-01-03T09:30:11.319Z,3572.00
2023-01-03T09:31:11.369Z,3652.00
2023-01-03T09:32:11.344Z,3684.00
2023-01-03T09:33:11.274Z,3768.00
2023-01-03T09:34:11.277Z,3836.00
2023-01-03T09:35:11.282Z,3912.00
2023-01-03T09:36:11.239Z,3952.00
2023-01-03T09:37:11.244Z,4016.00
2023-01-03T09:38:11.220Z,4084.00
2023-01-03T09:39:11.211Z,4148.00
2023-01-03T09:40:11.230Z,4224.00
2023-01-03T09:41:11.229Z,4300.00
2023-01-03T09:42:11.193Z,4364.00
2023-01-03T09:43:11.163Z,4420.00
2023-01-03T09:44:11.167Z,4456.00
2023-01-03T09:45:11.145Z,3868.00
2023-01-03T09:46:11.130Z,4584.00
2023-01-03T09:47:11.217Z,4412.00
2023-01-03T09:48:11.107Z,3280.00
2023-01-03T09:49:11.100Z,3060.00
2023-01-03T09:50:29.433Z,2584.00
2023-01-03T09:51:21.236Z,2492.00
2023-01-03T09:52:12.101Z,2476.00
2023-01-03T09:53:11.061Z,2524.00
2023-01-03T09:54:11.062Z,2540.00
2023-01-03T09:55:11.033Z,2700.00
2023-01-03T09:56:11.027Z,2992.00
2023-01-03T09:57:11.012Z,3592.00
2023-01-03T09:58:11.035Z,4168.00
2023-01-03T09:59:11.021Z,4328.00
2023-01-03T10:00:10.994Z,4372.00
2023-01-03T10:01:11.094Z,4220.00
2023-01-03T10:02:11.164Z,3968.00
2023-01-03T10:03:11.015Z,3788.00
2023-01-03T10:04:10.971Z,3924.00
2023-01-03T10:05:10.937Z,4324.00
2023-01-03T10:06:10.923Z,4552.00
2023-01-03T10:07:10.923Z,4844.00
2023-01-03T10:08:10.912Z,5448.00
2023-01-03T10:09:10.905Z,6036.00
2023-01-03T10:10:14.475Z,6572.00
2023-01-03T10:11:10.877Z,6480.00
2023-01-03T10:12:10.861Z,6100.00
2023-01-03T10:13:14.775Z,5776.00
2023-01-03T10:14:11.843Z,5544.00
2023-01-03T10:15:10.860Z,5488.00
2023-01-03T10:16:10.908Z,5392.00
2023-01-03T10:17:10.835Z,5436.00
2023-01-03T10:18:10.831Z,5192.00
2023-01-03T10:19:10.843Z,4780.00
2023-01-03T10:20:10.774Z,4648.00
2023-01-03T10:21:10.764Z,4520.00
2023-01-03T10:22:10.760Z,4404.00
2023-01-03T10:23:10.762Z,4528.00
2023-01-03T10:24:10.731Z,4644.00
2023-01-03T10:25:10.720Z,4656.00
2023-01-03T10:26:10.703Z,4816.00
2023-01-03T10:27:10.695Z,5000.00
2023-01-03T10:28:10.697Z,5792.00
2023-01-03T10:29:10.701Z,6716.00
2023-01-03T10:30:10.666Z,5808.00
2023-01-03T10:31:10.678Z,5352.00
2023-01-03T10:32:10.716Z,5924.00
2023-01-03T10:33:10.668Z,6380.00
2023-01-03T10:34:10.623Z,6564.00
2023-01-03T10:35:10.612Z,6244.00
2023-01-03T10:36:10.621Z,5420.00
2023-01-03T10:37:10.596Z,4884.00
2023-01-03T10:38:10.580Z,4788.00
2023-01-03T10:39:10.575Z,4736.00
2023-01-03T10:40:10.567Z,4328.00
2023-01-03T10:41:10.574Z,4956.00
2023-01-03T10:42:10.542Z,4588.00
2023-01-03T10:43:10.532Z,4372.00
2023-01-03T10:44:10.522Z,4200.00
2023-01-03T10:45:10.521Z,3764.00
2023-01-03T10:46:10.548Z,3356.00
2023-01-03T10:47:10.476Z,3144.00
2023-01-03T10:48:10.466Z,3064.00
2023-01-03T10:49:27.362Z,3100.00
2023-01-03T10:50:11.466Z,3236.00
2023-01-03T10:51:10.425Z,3288.00
2023-01-03T10:52:10.439Z,3524.00
2023-01-03T10:53:10.448Z,4104.00
2023-01-03T10:54:10.398Z,4736.00
2023-01-03T10:55:10.394Z,5460.00
2023-01-03T10:56:10.415Z,5284.00
2023-01-03T10:57:10.389Z,4484.00
2023-01-03T10:58:10.366Z,4472.00
2023-01-03T10:59:10.356Z,4260.00
2023-01-03T11:00:10.368Z,4088.00
2023-01-03T11:01:10.435Z,4224.00
2023-01-03T11:02:10.544Z,4472.00
2023-01-03T11:03:10.555Z,4360.00
2023-01-03T11:04:10.309Z,3812.00
2023-01-03T11:05:10.305Z,3636.00
2023-01-03T11:06:10.341Z,4020.00
2023-01-03T11:07:10.255Z,4536.00
2023-01-03T11:08:10.246Z,4732.00
2023-01-03T11:09:10.253Z,4744.00
2023-01-03T11:10:10.235Z,4644.00
2023-01-03T11:11:10.207Z,5000.00
2023-01-03T11:12:10.235Z,5464.00
2023-01-03T11:13:10.196Z,5132.00
2023-01-03T11:14:10.200Z,4864.00
2023-01-03T11:15:10.174Z,5592.00
2023-01-03T11:16:10.176Z,5504.00
2023-01-03T11:17:10.265Z,5188.00
2023-01-03T11:18:10.153Z,5448.00
2023-01-03T11:19:10.126Z,6164.00
2023-01-03T11:20:10.128Z,6760.00
2023-01-03T11:21:10.136Z,6404.00
2023-01-03T11:22:10.106Z,5292.00
2023-01-03T11:23:10.114Z,6420.00
2023-01-03T11:24:10.084Z,6524.00
2023-01-03T11:25:10.065Z,6132.00
2023-01-03T11:26:10.061Z,6260.00
2023-01-03T11:27:10.046Z,6280.00
2023-01-03T11:28:15.568Z,6608.00
2023-01-03T11:29:11.021Z,7100.00
2023-01-03T11:30:10.001Z,7660.00
2023-01-03T11:31:09.996Z,7164.00
2023-01-03T11:32:10.029Z,5736.00
2023-01-03T11:33:09.976Z,6796.00
2023-01-03T11:34:09.987Z,7524.00
2023-01-03T11:35:25.630Z,7660.00
2023-01-03T11:36:10.947Z,9328.00
2023-01-03T11:37:09.928Z,8132.00
2023-01-03T11:38:09.921Z,7428.00
2023-01-03T11:39:14.968Z,5380.00
2023-01-03T11:40:10.940Z,5584.00
2023-01-03T11:41:09.880Z,6276.00
2023-01-03T11:42:09.886Z,7288.00
2023-01-03T11:43:09.868Z,13084.00
2023-01-03T11:44:09.851Z,8952.00
2023-01-03T11:45:09.856Z,5428.00
2023-01-03T11:46:09.883Z,4180.00
2023-01-03T11:47:09.825Z,4328.00
2023-01-03T11:48:09.817Z,4096.00
2023-01-03T11:49:09.818Z,3820.00
2023-01-03T11:50:09.825Z,2964.00
2023-01-03T11:51:09.770Z,2836.00
2023-01-03T11:52:09.775Z,3108.00
2023-01-03T11:53:09.761Z,3092.00
2023-01-03T11:54:09.750Z,2604.00
2023-01-03T11:55:09.738Z,2600.00
2023-01-03T11:56:09.748Z,2748.00
2023-01-03T11:57:09.732Z,2592.00
2023-01-03T11:58:09.691Z,2284.00
2023-01-03T11:59:09.981Z,2424.00
2023-01-03T12:00:09.704Z,2564.00
2023-01-03T12:01:09.728Z,2276.00
2023-01-03T12:02:09.809Z,2384.00
2023-01-03T12:03:09.881Z,2052.00
2023-01-03T12:04:09.688Z,2120.00
2023-01-03T12:05:09.643Z,2536.00
2023-01-03T12:06:09.610Z,2048.00
2023-01-03T12:07:45.845Z,1972.00
2023-01-03T12:08:10.583Z,1868.00
2023-01-03T12:09:09.581Z,2048.00
2023-01-03T12:10:09.573Z,2168.00
2023-01-03T12:11:09.551Z,1940.00
2023-01-03T12:12:09.547Z,2012.00
2023-01-03T12:13:09.583Z,1604.00
2023-01-03T12:14:09.538Z,1808.00
2023-01-03T12:15:09.512Z,1704.00
2023-01-03T12:16:09.578Z,2080.00
2023-01-03T12:17:09.493Z,2288.00
2023-01-03T12:18:09.477Z,1940.00
2023-01-03T12:19:12.509Z,1764.00
2023-01-03T12:20:09.480Z,1520.00
2023-01-03T12:21:09.444Z,1720.00
2023-01-03T12:22:09.446Z,1756.00
2023-01-03T12:23:09.416Z,1688.00
2023-01-03T12:24:09.434Z,1760.00
2023-01-03T12:25:09.398Z,1560.00
2023-01-03T12:26:10.156Z,1236.00
2023-01-03T12:27:09.372Z,1200.00
2023-01-03T12:28:09.363Z,1196.00
2023-01-03T12:29:09.383Z,1220.00
2023-01-03T12:30:09.372Z,1064.00
2023-01-03T12:31:09.420Z,1016.00
2023-01-03T12:32:10.093Z,988.00
2023-01-03T12:33:09.332Z,924.00
2023-01-03T12:34:09.315Z,732.00
2023-01-03T12:35:09.335Z,872.00
2023-01-03T12:36:09.276Z,1248.00
2023-01-03T12:37:09.273Z,1772.00
2023-01-03T12:38:09.259Z,2004.00
2023-01-03T12:39:09.247Z,1944.00
2023-01-03T12:40:09.226Z,2048.00
2023-01-03T12:41:09.233Z,1920.00
2023-01-03T12:42:09.207Z,2308.00
2023-01-03T12:43:09.194Z,1564.00
2023-01-03T12:44:09.189Z,1452.00
2023-01-03T12:45:09.206Z,1640.00
2023-01-03T12:46:12.988Z,1800.00
2023-01-03T12:47:16.583Z,1556.00